sensor_id;sensor_type;location;lat;lon;timestamp;P1;P2;P0
48155;PMS5003;35568;48.104;11.782;2022-11-15T00:00:46;23;22;
48155;PMS5003;35568;48.104;11.782;2022-11-15T00:03:13;21;19;
48155;PMS5003;35568;48.104;11.782;2022-11-15T00:05:41;19;18;
48155;PMS5003;35568;48.104;11.782;2022-11-15T00:08:09;18;18;
48155;PMS5003;35568;48.104;11.782;2022-11-15T00:10:37;18;16;
48155;PMS5003;35568;48.104;11.782;2022-11-15T00:13:05;18;17;
48155;PMS5003;35568;48.104;11.782;2022-11-15T00:15:34;19;18;
48155;PMS5003;35568;48.104;11.782;2022-11-15T00:18:02;15;15;
48155;PMS5003;35568;48.104;11.782;2022-11-15T00:20:29;14;14;
48155;PMS5003;35568;48.104;11.782;2022-11-15T00:22:56;17;17;
48155;PMS5003;35568;48.104;11.782;2022-11-15T00:25:23;20;19;
48155;PMS5003;35568;48.104;11.782;2022-11-15T00:27:54;18;17;
48155;PMS5003;35568;48.104;11.782;2022-11-15T00:30:21;16;15;
48155;PMS5003;35568;48.104;11.782;2022-11-15T00:32:49;18;17;
48155;PMS5003;35568;48.104;11.782;2022-11-15T00:35:16;17;17;
48155;PMS5003;35568;48.104;11.782;2022-11-15T00:37:44;19;17;
48155;PMS5003;35568;48.104;11.782;2022-11-15T00:40:11;17;17;
48155;PMS5003;35568;48.104;11.782;2022-11-15T00:42:39;14;14;
48155;PMS5003;35568;48.104;11.782;2022-11-15T00:45:06;17;16;
48155;PMS5003;35568;48.104;11.782;2022-11-15T00:47:34;18;18;
48155;PMS5003;35568;48.104;11.782;2022-11-15T00:50:01;15;15;
48155;PMS5003;35568;48.104;11.782;2022-11-15T00:52:28;14;14;
48155;PMS5003;35568;48.104;11.782;2022-11-15T00:54:55;15;14;
48155;PMS5003;35568;48.104;11.782;2022-11-15T00:57:22;14;14;
48155;PMS5003;35568;48.104;11.782;2022-11-15T00:59:48;18;17;
48155;PMS5003;35568;48.104;11.782;2022-11-15T01:02:16;14;14;
48155;PMS5003;35568;48.104;11.782;2022-11-15T01:04:42;15;15;
48155;PMS5003;35568;48.104;11.782;2022-11-15T01:07:09;22;19;
48155;PMS5003;35568;48.104;11.782;2022-11-15T01:09:36;19;18;
48155;PMS5003;35568;48.104;11.782;2022-11-15T01:12:04;18;17;
48155;PMS5003;35568;48.104;11.782;2022-11-15T01:14:31;16;16;
48155;PMS5003;35568;48.104;11.782;2022-11-15T01:16:58;16;16;
48155;PMS5003;35568;48.104;11.782;2022-11-15T01:19:25;17;16;
48155;PMS5003;35568;48.104;11.782;2022-11-15T01:21:51;18;17;
48155;PMS5003;35568;48.104;11.782;2022-11-15T01:24:19;20;19;
48155;PMS5003;35568;48.104;11.782;2022-11-15T01:26:46;16;15;
48155;PMS5003;35568;48.104;11.782;2022-11-15T01:29:13;18;18;
48155;PMS5003;35568;48.104;11.782;2022-11-15T01:31:40;15;13;
48155;PMS5003;35568;48.104;11.782;2022-11-15T01:34:07;18;17;
48155;PMS5003;35568;48.104;11.782;2022-11-15T01:36:34;18;16;
48155;PMS5003;35568;48.104;11.782;2022-11-15T01:39:01;20;19;
48155;PMS5003;35568;48.104;11.782;2022-11-15T01:41:30;21;19;
48155;PMS5003;35568;48.104;11.782;2022-11-15T01:44:34;13;13;
48155;PMS5003;35568;48.104;11.782;2022-11-15T01:47:07;17;16;
48155;PMS5003;35568;48.104;11.782;2022-11-15T01:49:39;15;15;
48155;PMS5003;35568;48.104;11.782;2022-11-15T01:52:15;14;14;
48155;PMS5003;35568;48.104;11.782;2022-11-15T01:54:45;15;14;
48155;PMS5003;35568;48.104;11.782;2022-11-15T01:57:15;15;14;
48155;PMS5003;35568;48.104;11.782;2022-11-15T01:59:43;15;14;
48155;PMS5003;35568;48.104;11.782;2022-11-15T02:02:12;15;14;
48155;PMS5003;35568;48.104;11.782;2022-11-15T02:04:40;15;14;
48155;PMS5003;35568;48.104;11.782;2022-11-15T02:07:08;14;14;
48155;PMS5003;35568;48.104;11.782;2022-11-15T02:09:38;14;13;
48155;PMS5003;35568;48.104;11.782;2022-11-15T02:12:05;12;11;
48155;PMS5003;35568;48.104;11.782;2022-11-15T02:14:34;14;14;
48155;PMS5003;35568;48.104;11.782;2022-11-15T02:17:07;10;10;
48155;PMS5003;35568;48.104;11.782;2022-11-15T02:19:51;12;12;
48155;PMS5003;35568;48.104;11.782;2022-11-15T02:22:51;11;11;
48155;PMS5003;35568;48.104;11.782;2022-11-15T02:25:38;12;12;
48155;PMS5003;35568;48.104;11.782;2022-11-15T02:29:18;14;14;
48155;PMS5003;35568;48.104;11.782;2022-11-15T02:31:56;13;11;
48155;PMS5003;35568;48.104;11.782;2022-11-15T02:34:31;10;10;
48155;PMS5003;35568;48.104;11.782;2022-11-15T02:37:11;12;12;
48155;PMS5003;35568;48.104;11.782;2022-11-15T02:39:45;12;12;
48155;PMS5003;35568;48.104;11.782;2022-11-15T02:42:19;10;10;
48155;PMS5003;35568;48.104;11.782;2022-11-15T02:44:51;12;12;
48155;PMS5003;35568;48.104;11.782;2022-11-15T02:47:22;11;11;
48155;PMS5003;35568;48.104;11.782;2022-11-15T02:49:54;10;9;
48155;PMS5003;35568;48.104;11.782;2022-11-15T02:52:25;14;12;
48155;PMS5003;35568;48.104;11.782;2022-11-15T02:54:53;11;11;
48155;PMS5003;35568;48.104;11.782;2022-11-15T02:57:28;11;11;
48155;PMS5003;35568;48.104;11.782;2022-11-15T03:00:07;15;14;
48155;PMS5003;35568;48.104;11.782;2022-11-15T03:02:39;12;12;
48155;PMS5003;35568;48.104;11.782;2022-11-15T03:05:18;12;12;
48155;PMS5003;35568;48.104;11.782;2022-11-15T03:07:52;11;11;
48155;PMS5003;35568;48.104;11.782;2022-11-15T03:10:26;13;12;
48155;PMS5003;35568;48.104;11.782;2022-11-15T03:13:05;11;11;
48155;PMS5003;35568;48.104;11.782;2022-11-15T03:15:40;9;9;
48155;PMS5003;35568;48.104;11.782;2022-11-15T03:18:15;11;11;
48155;PMS5003;35568;48.104;11.782;2022-11-15T03:20:47;13;13;
48155;PMS5003;35568;48.104;11.782;2022-11-15T03:23:15;16;15;
48155;PMS5003;35568;48.104;11.782;2022-11-15T03:25:45;13;12;
48155;PMS5003;35568;48.104;11.782;2022-11-15T03:28:16;12;12;
48155;PMS5003;35568;48.104;11.782;2022-11-15T03:30:48;11;10;
48155;PMS5003;35568;48.104;11.782;2022-11-15T03:33:17;10;10;
48155;PMS5003;35568;48.104;11.782;2022-11-15T03:35:47;12;11;
48155;PMS5003;35568;48.104;11.782;2022-11-15T03:38:16;15;14;
48155;PMS5003;35568;48.104;11.782;2022-11-15T03:40:51;12;12;
48155;PMS5003;35568;48.104;11.782;2022-11-15T03:43:24;11;11;
48155;PMS5003;35568;48.104;11.782;2022-11-15T03:45:57;12;11;
48155;PMS5003;35568;48.104;11.782;2022-11-15T03:48:29;13;13;
48155;PMS5003;35568;48.104;11.782;2022-11-15T03:51:00;12;12;
48155;PMS5003;35568;48.104;11.782;2022-11-15T03:53:28;13;13;
48155;PMS5003;35568;48.104;11.782;2022-11-15T03:55:55;12;12;
48155;PMS5003;35568;48.104;11.782;2022-11-15T03:58:22;9;9;
48155;PMS5003;35568;48.104;11.782;2022-11-15T04:03:00;12;11;
48155;PMS5003;35568;48.104;11.782;2022-11-15T04:05:27;10;10;
48155;PMS5003;35568;48.104;11.782;2022-11-15T04:07:54;9;9;
48155;PMS5003;35568;48.104;11.782;2022-11-15T04:10:20;12;12;
48155;PMS5003;35568;48.104;11.782;2022-11-15T04:12:47;9;8;
48155;PMS5003;35568;48.104;11.782;2022-11-15T04:15:15;10;10;
48155;PMS5003;35568;48.104;11.782;2022-11-15T04:17:45;10;9;
48155;PMS5003;35568;48.104;11.782;2022-11-15T04:20:14;12;11;
48155;PMS5003;35568;48.104;11.782;2022-11-15T04:22:42;10;9;
48155;PMS5003;35568;48.104;11.782;2022-11-15T04:25:09;9;8;
48155;PMS5003;35568;48.104;11.782;2022-11-15T04:27:36;9;9;
48155;PMS5003;35568;48.104;11.782;2022-11-15T04:30:03;11;10;
48155;PMS5003;35568;48.104;11.782;2022-11-15T04:32:31;11;9;
48155;PMS5003;35568;48.104;11.782;2022-11-15T04:34:58;13;12;
48155;PMS5003;35568;48.104;11.782;2022-11-15T04:37:25;10;10;
48155;PMS5003;35568;48.104;11.782;2022-11-15T04:39:52;10;10;
48155;PMS5003;35568;48.104;11.782;2022-11-15T04:42:19;10;9;
48155;PMS5003;35568;48.104;11.782;2022-11-15T04:44:46;7;7;
48155;PMS5003;35568;48.104;11.782;2022-11-15T04:47:13;9;9;
48155;PMS5003;35568;48.104;11.782;2022-11-15T04:49:40;9;8;
48155;PMS5003;35568;48.104;11.782;2022-11-15T04:52:07;9;8;
48155;PMS5003;35568;48.104;11.782;2022-11-15T04:54:34;8;8;
48155;PMS5003;35568;48.104;11.782;2022-11-15T04:57:01;7;7;
48155;PMS5003;35568;48.104;11.782;2022-11-15T04:59:28;9;9;
48155;PMS5003;35568;48.104;11.782;2022-11-15T05:01:55;8;7;
48155;PMS5003;35568;48.104;11.782;2022-11-15T05:04:22;11;10;
48155;PMS5003;35568;48.104;11.782;2022-11-15T05:06:49;10;10;
48155;PMS5003;35568;48.104;11.782;2022-11-15T05:09:16;9;9;
48155;PMS5003;35568;48.104;11.782;2022-11-15T05:11:44;12;11;
48155;PMS5003;35568;48.104;11.782;2022-11-15T05:14:11;11;11;
48155;PMS5003;35568;48.104;11.782;2022-11-15T05:16:39;14;12;
48155;PMS5003;35568;48.104;11.782;2022-11-15T05:19:06;15;13;
48155;PMS5003;35568;48.104;11.782;2022-11-15T05:21:34;11;11;
48155;PMS5003;35568;48.104;11.782;2022-11-15T05:24:01;13;12;
48155;PMS5003;35568;48.104;11.782;2022-11-15T05:26:28;14;13;
48155;PMS5003;35568;48.104;11.782;2022-11-15T05:28:56;13;12;
48155;PMS5003;35568;48.104;11.782;2022-11-15T05:31:25;10;10;
48155;PMS5003;35568;48.104;11.782;2022-11-15T05:33:53;12;11;
48155;PMS5003;35568;48.104;11.782;2022-11-15T05:36:24;10;10;
48155;PMS5003;35568;48.104;11.782;2022-11-15T05:38:56;8;8;
48155;PMS5003;35568;48.104;11.782;2022-11-15T05:41:25;10;9;
48155;PMS5003;35568;48.104;11.782;2022-11-15T05:43:55;8;7;
48155;PMS5003;35568;48.104;11.782;2022-11-15T05:46:22;9;8;
48155;PMS5003;35568;48.104;11.782;2022-11-15T05:48:51;10;9;
48155;PMS5003;35568;48.104;11.782;2022-11-15T05:51:20;10;10;
48155;PMS5003;35568;48.104;11.782;2022-11-15T05:53:49;11;10;
48155;PMS5003;35568;48.104;11.782;2022-11-15T05:56:17;9;9;
48155;PMS5003;35568;48.104;11.782;2022-11-15T05:58:44;11;10;
48155;PMS5003;35568;48.104;11.782;2022-11-15T06:01:11;14;14;
48155;PMS5003;35568;48.104;11.782;2022-11-15T06:03:39;10;10;
48155;PMS5003;35568;48.104;11.782;2022-11-15T06:06:06;10;10;
48155;PMS5003;35568;48.104;11.782;2022-11-15T06:08:33;10;10;
48155;PMS5003;35568;48.104;11.782;2022-11-15T06:11:03;10;10;
48155;PMS5003;35568;48.104;11.782;2022-11-15T06:13:31;8;8;
48155;PMS5003;35568;48.104;11.782;2022-11-15T06:15:58;10;10;
48155;PMS5003;35568;48.104;11.782;2022-11-15T06:18:26;11;10;
48155;PMS5003;35568;48.104;11.782;2022-11-15T06:20:53;10;10;
48155;PMS5003;35568;48.104;11.782;2022-11-15T06:23:24;10;10;
48155;PMS5003;35568;48.104;11.782;2022-11-15T06:25:50;11;11;
48155;PMS5003;35568;48.104;11.782;2022-11-15T06:28:17;10;10;
48155;PMS5003;35568;48.104;11.782;2022-11-15T06:30:44;10;8;
48155;PMS5003;35568;48.104;11.782;2022-11-15T06:33:11;8;8;
48155;PMS5003;35568;48.104;11.782;2022-11-15T06:35:38;9;9;
48155;PMS5003;35568;48.104;11.782;2022-11-15T06:38:05;11;11;
48155;PMS5003;35568;48.104;11.782;2022-11-15T06:40:34;10;10;
48155;PMS5003;35568;48.104;11.782;2022-11-15T06:43:02;11;11;
48155;PMS5003;35568;48.104;11.782;2022-11-15T06:45:30;12;11;
48155;PMS5003;35568;48.104;11.782;2022-11-15T06:47:57;12;12;
48155;PMS5003;35568;48.104;11.782;2022-11-15T06:50:24;9;9;
48155;PMS5003;35568;48.104;11.782;2022-11-15T06:52:51;10;10;
48155;PMS5003;35568;48.104;11.782;2022-11-15T06:55:18;10;10;
48155;PMS5003;35568;48.104;11.782;2022-11-15T06:57:47;14;14;
48155;PMS5003;35568;48.104;11.782;2022-11-15T07:00:15;11;10;
48155;PMS5003;35568;48.104;11.782;2022-11-15T07:02:44;11;11;
48155;PMS5003;35568;48.104;11.782;2022-11-15T07:05:12;12;12;
48155;PMS5003;35568;48.104;11.782;2022-11-15T07:07:40;9;9;
48155;PMS5003;35568;48.104;11.782;2022-11-15T07:10:07;10;10;
48155;PMS5003;35568;48.104;11.782;2022-11-15T07:12:35;9;9;
48155;PMS5003;35568;48.104;11.782;2022-11-15T07:15:02;8;8;
48155;PMS5003;35568;48.104;11.782;2022-11-15T07:17:29;7;7;
48155;PMS5003;35568;48.104;11.782;2022-11-15T07:19:56;8;8;
48155;PMS5003;35568;48.104;11.782;2022-11-15T07:22:23;8;8;
48155;PMS5003;35568;48.104;11.782;2022-11-15T07:24:50;10;10;
48155;PMS5003;35568;48.104;11.782;2022-11-15T07:27:17;14;14;
48155;PMS5003;35568;48.104;11.782;2022-11-15T07:29:44;13;12;
48155;PMS5003;35568;48.104;11.782;2022-11-15T07:32:11;12;12;
48155;PMS5003;35568;48.104;11.782;2022-11-15T07:34:38;11;11;
48155;PMS5003;35568;48.104;11.782;2022-11-15T07:37:04;12;12;
48155;PMS5003;35568;48.104;11.782;2022-11-15T07:39:31;13;12;
48155;PMS5003;35568;48.104;11.782;2022-11-15T07:41:58;11;10;
48155;PMS5003;35568;48.104;11.782;2022-11-15T07:44:26;9;9;
48155;PMS5003;35568;48.104;11.782;2022-11-15T07:46:52;13;13;
48155;PMS5003;35568;48.104;11.782;2022-11-15T07:49:19;10;9;
48155;PMS5003;35568;48.104;11.782;2022-11-15T07:51:46;12;11;
48155;PMS5003;35568;48.104;11.782;2022-11-15T07:54:13;7;7;
48155;PMS5003;35568;48.104;11.782;2022-11-15T07:56:40;11;10;
48155;PMS5003;35568;48.104;11.782;2022-11-15T07:59:07;6;5;
48155;PMS5003;35568;48.104;11.782;2022-11-15T08:01:34;10;9;
48155;PMS5003;35568;48.104;11.782;2022-11-15T08:04:01;7;6;
48155;PMS5003;35568;48.104;11.782;2022-11-15T08:06:28;8;8;
48155;PMS5003;35568;48.104;11.782;2022-11-15T08:08:55;9;9;
48155;PMS5003;35568;48.104;11.782;2022-11-15T08:11:22;10;9;
48155;PMS5003;35568;48.104;11.782;2022-11-15T08:13:49;10;9;
48155;PMS5003;35568;48.104;11.782;2022-11-15T08:16:16;11;9;
48155;PMS5003;35568;48.104;11.782;2022-11-15T08:18:43;10;9;
48155;PMS5003;35568;48.104;11.782;2022-11-15T08:21:10;6;6;
48155;PMS5003;35568;48.104;11.782;2022-11-15T08:23:41;10;8;
48155;PMS5003;35568;48.104;11.782;2022-11-15T08:26:08;9;9;
48155;PMS5003;35568;48.104;11.782;2022-11-15T08:28:35;7;7;
48155;PMS5003;35568;48.104;11.782;2022-11-15T08:31:02;6;6;
48155;PMS5003;35568;48.104;11.782;2022-11-15T08:33:31;7;6;
48155;PMS5003;35568;48.104;11.782;2022-11-15T08:35:58;6;5;
48155;PMS5003;35568;48.104;11.782;2022-11-15T08:38:27;6;6;
48155;PMS5003;35568;48.104;11.782;2022-11-15T08:40:54;6;6;
48155;PMS5003;35568;48.104;11.782;2022-11-15T08:43:29;6;6;
48155;PMS5003;35568;48.104;11.782;2022-11-15T08:45:56;6;5;
48155;PMS5003;35568;48.104;11.782;2022-11-15T08:48:23;6;5;
48155;PMS5003;35568;48.104;11.782;2022-11-15T08:50:53;6;6;
48155;PMS5003;35568;48.104;11.782;2022-11-15T08:53:20;6;5;
48155;PMS5003;35568;48.104;11.782;2022-11-15T08:55:48;5;5;
48155;PMS5003;35568;48.104;11.782;2022-11-15T08:58:15;5;5;
48155;PMS5003;35568;48.104;11.782;2022-11-15T09:00:42;5;5;
48155;PMS5003;35568;48.104;11.782;2022-11-15T09:03:09;4;4;
48155;PMS5003;35568;48.104;11.782;2022-11-15T09:05:36;4;4;
48155;PMS5003;35568;48.104;11.782;2022-11-15T09:08:03;3;3;
48155;PMS5003;35568;48.104;11.782;2022-11-15T09:10:31;6;5;
48155;PMS5003;35568;48.104;11.782;2022-11-15T09:12:58;3;3;
48155;PMS5003;35568;48.104;11.782;2022-11-15T09:15:25;5;5;
48155;PMS5003;35568;48.104;11.782;2022-11-15T09:17:52;4;4;
48155;PMS5003;35568;48.104;11.782;2022-11-15T09:20:19;4;4;
48155;PMS5003;35568;48.104;11.782;2022-11-15T09:22:46;4;3;
48155;PMS5003;35568;48.104;11.782;2022-11-15T09:25:13;5;5;
48155;PMS5003;35568;48.104;11.782;2022-11-15T09:27:39;4;4;
48155;PMS5003;35568;48.104;11.782;2022-11-15T09:30:06;5;5;
48155;PMS5003;35568;48.104;11.782;2022-11-15T09:32:34;4;4;
48155;PMS5003;35568;48.104;11.782;2022-11-15T09:35:01;2;2;
48155;PMS5003;35568;48.104;11.782;2022-11-15T09:37:27;3;3;
48155;PMS5003;35568;48.104;11.782;2022-11-15T09:39:54;4;4;
48155;PMS5003;35568;48.104;11.782;2022-11-15T09:42:25;2;2;
48155;PMS5003;35568;48.104;11.782;2022-11-15T09:45:05;3;3;
48155;PMS5003;35568;48.104;11.782;2022-11-15T09:47:45;2;2;
48155;PMS5003;35568;48.104;11.782;2022-11-15T09:50:28;3;3;
48155;PMS5003;35568;48.104;11.782;2022-11-15T09:53:00;3;3;
48155;PMS5003;35568;48.104;11.782;2022-11-15T09:55:30;4;4;
48155;PMS5003;35568;48.104;11.782;2022-11-15T09:58:09;3;3;
48155;PMS5003;35568;48.104;11.782;2022-11-15T10:00:47;4;4;
48155;PMS5003;35568;48.104;11.782;2022-11-15T10:03:16;3;3;
48155;PMS5003;35568;48.104;11.782;2022-11-15T10:05:46;4;4;
48155;PMS5003;35568;48.104;11.782;2022-11-15T10:08:22;4;4;
48155;PMS5003;35568;48.104;11.782;2022-11-15T10:11:08;3;3;
48155;PMS5003;35568;48.104;11.782;2022-11-15T10:13:40;6;5;
48155;PMS5003;35568;48.104;11.782;2022-11-15T10:16:12;4;4;
48155;PMS5003;35568;48.104;11.782;2022-11-15T10:18:53;4;3;
48155;PMS5003;35568;48.104;11.782;2022-11-15T10:21:29;4;4;
48155;PMS5003;35568;48.104;11.782;2022-11-15T10:24:08;3;3;
48155;PMS5003;35568;48.104;11.782;2022-11-15T10:26:38;5;4;
48155;PMS5003;35568;48.104;11.782;2022-11-15T10:29:11;4;4;
48155;PMS5003;35568;48.104;11.782;2022-11-15T10:31:44;4;4;
48155;PMS5003;35568;48.104;11.782;2022-11-15T10:34:12;4;4;
48155;PMS5003;35568;48.104;11.782;2022-11-15T10:36:43;4;4;
48155;PMS5003;35568;48.104;11.782;2022-11-15T10:39:11;6;6;
48155;PMS5003;35568;48.104;11.782;2022-11-15T10:41:40;3;3;
48155;PMS5003;35568;48.104;11.782;2022-11-15T10:44:11;5;4;
48155;PMS5003;35568;48.104;11.782;2022-11-15T10:46:44;5;4;
48155;PMS5003;35568;48.104;11.782;2022-11-15T10:49:13;5;4;
48155;PMS5003;35568;48.104;11.782;2022-11-15T10:51:42;5;5;
48155;PMS5003;35568;48.104;11.782;2022-11-15T10:54:13;3;3;
48155;PMS5003;35568;48.104;11.782;2022-11-15T10:56:48;5;5;
48155;PMS5003;35568;48.104;11.782;2022-11-15T10:59:20;5;5;
48155;PMS5003;35568;48.104;11.782;2022-11-15T11:01:51;4;4;
48155;PMS5003;35568;48.104;11.782;2022-11-15T11:04:17;5;3;
48155;PMS5003;35568;48.104;11.782;2022-11-15T11:06:46;6;5;
48155;PMS5003;35568;48.104;11.782;2022-11-15T11:09:21;5;5;
48155;PMS5003;35568;48.104;11.782;2022-11-15T11:11:53;4;4;
48155;PMS5003;35568;48.104;11.782;2022-11-15T11:14:20;6;6;
48155;PMS5003;35568;48.104;11.782;2022-11-15T11:16:49;4;4;
48155;PMS5003;35568;48.104;11.782;2022-11-15T11:19:30;5;5;
48155;PMS5003;35568;48.104;11.782;2022-11-15T11:22:06;4;4;
48155;PMS5003;35568;48.104;11.782;2022-11-15T11:24:44;7;7;
48155;PMS5003;35568;48.104;11.782;2022-11-15T11:27:19;4;4;
48155;PMS5003;35568;48.104;11.782;2022-11-15T11:30:00;4;4;
48155;PMS5003;35568;48.104;11.782;2022-11-15T11:32:38;6;5;
48155;PMS5003;35568;48.104;11.782;2022-11-15T11:35:14;3;3;
48155;PMS5003;35568;48.104;11.782;2022-11-15T11:37:47;3;3;
48155;PMS5003;35568;48.104;11.782;2022-11-15T11:40:21;5;4;
48155;PMS5003;35568;48.104;11.782;2022-11-15T11:42:56;5;5;
48155;PMS5003;35568;48.104;11.782;2022-11-15T11:45:36;5;4;
48155;PMS5003;35568;48.104;11.782;2022-11-15T11:48:18;3;3;
48155;PMS5003;35568;48.104;11.782;2022-11-15T11:50:52;4;3;
48155;PMS5003;35568;48.104;11.782;2022-11-15T11:53:34;4;4;
48155;PMS5003;35568;48.104;11.782;2022-11-15T11:56:08;4;4;
48155;PMS5003;35568;48.104;11.782;2022-11-15T11:58:43;4;4;
48155;PMS5003;35568;48.104;11.782;2022-11-15T12:01:14;5;5;
48155;PMS5003;35568;48.104;11.782;2022-11-15T12:03:47;4;4;
48155;PMS5003;35568;48.104;11.782;2022-11-15T12:06:19;2;2;
48155;PMS5003;35568;48.104;11.782;2022-11-15T12:08:55;5;4;
48155;PMS5003;35568;48.104;11.782;2022-11-15T12:11:28;5;5;
48155;PMS5003;35568;48.104;11.782;2022-11-15T12:14:04;3;3;
48155;PMS5003;35568;48.104;11.782;2022-11-15T12:16:38;3;3;
48155;PMS5003;35568;48.104;11.782;2022-11-15T12:19:08;5;4;
48155;PMS5003;35568;48.104;11.782;2022-11-15T12:21:36;3;3;
48155;PMS5003;35568;48.104;11.782;2022-11-15T12:24:13;4;4;
48155;PMS5003;35568;48.104;11.782;2022-11-15T12:26:45;3;3;
48155;PMS5003;35568;48.104;11.782;2022-11-15T12:29:19;5;4;
48155;PMS5003;35568;48.104;11.782;2022-11-15T12:31:52;4;4;
48155;PMS5003;35568;48.104;11.782;2022-11-15T12:34:33;4;4;
48155;PMS5003;35568;48.104;11.782;2022-11-15T12:37:32;4;3;
48155;PMS5003;35568;48.104;11.782;2022-11-15T12:40:21;6;5;
48155;PMS5003;35568;48.104;11.782;2022-11-15T12:43:51;3;3;
48155;PMS5003;35568;48.104;11.782;2022-11-15T12:46:20;4;4;
48155;PMS5003;35568;48.104;11.782;2022-11-15T12:49:42;3;3;
48155;PMS5003;35568;48.104;11.782;2022-11-15T12:52:10;3;3;
48155;PMS5003;35568;48.104;11.782;2022-11-15T12:55:42;4;4;
48155;PMS5003;35568;48.104;11.782;2022-11-15T12:58:27;3;2;
48155;PMS5003;35568;48.104;11.782;2022-11-15T13:01:06;4;4;
48155;PMS5003;35568;48.104;11.782;2022-11-15T13:03:33;4;4;
48155;PMS5003;35568;48.104;11.782;2022-11-15T13:06:03;3;3;
48155;PMS5003;35568;48.104;11.782;2022-11-15T13:08:35;2;2;
48155;PMS5003;35568;48.104;11.782;2022-11-15T13:11:41;5;4;
48155;PMS5003;35568;48.104;11.782;2022-11-15T13:14:44;3;3;
48155;PMS5003;35568;48.104;11.782;2022-11-15T13:17:30;4;4;
48155;PMS5003;35568;48.104;11.782;2022-11-15T13:20:08;4;4;
48155;PMS5003;35568;48.104;11.782;2022-11-15T13:22:45;2;2;
48155;PMS5003;35568;48.104;11.782;2022-11-15T13:25:14;4;4;
48155;PMS5003;35568;48.104;11.782;2022-11-15T13:27:44;3;3;
48155;PMS5003;35568;48.104;11.782;2022-11-15T13:30:13;4;4;
48155;PMS5003;35568;48.104;11.782;2022-11-15T13:32:47;3;3;
48155;PMS5003;35568;48.104;11.782;2022-11-15T13:35:18;4;4;
48155;PMS5003;35568;48.104;11.782;2022-11-15T13:37:48;5;5;
48155;PMS5003;35568;48.104;11.782;2022-11-15T13:40:18;5;4;
48155;PMS5003;35568;48.104;11.782;2022-11-15T13:42:49;4;4;
48155;PMS5003;35568;48.104;11.782;2022-11-15T13:45:18;4;4;
48155;PMS5003;35568;48.104;11.782;2022-11-15T13:47:50;5;5;
48155;PMS5003;35568;48.104;11.782;2022-11-15T13:50:20;3;3;
48155;PMS5003;35568;48.104;11.782;2022-11-15T13:52:51;4;4;
48155;PMS5003;35568;48.104;11.782;2022-11-15T13:55:20;3;3;
48155;PMS5003;35568;48.104;11.782;2022-11-15T13:57:49;4;4;
48155;PMS5003;35568;48.104;11.782;2022-11-15T14:00:26;4;4;
48155;PMS5003;35568;48.104;11.782;2022-11-15T14:03:04;6;5;
48155;PMS5003;35568;48.104;11.782;2022-11-15T14:05:34;4;3;
48155;PMS5003;35568;48.104;11.782;2022-11-15T14:08:01;4;4;
48155;PMS5003;35568;48.104;11.782;2022-11-15T14:10:31;4;4;
48155;PMS5003;35568;48.104;11.782;2022-11-15T14:12:59;5;5;
48155;PMS5003;35568;48.104;11.782;2022-11-15T14:15:28;6;5;
48155;PMS5003;35568;48.104;11.782;2022-11-15T14:17:56;6;5;
48155;PMS5003;35568;48.104;11.782;2022-11-15T14:20:28;6;6;
48155;PMS5003;35568;48.104;11.782;2022-11-15T14:22:56;6;6;
48155;PMS5003;35568;48.104;11.782;2022-11-15T14:25:25;6;5;
48155;PMS5003;35568;48.104;11.782;2022-11-15T14:28:54;6;5;
48155;PMS5003;35568;48.104;11.782;2022-11-15T14:31:22;5;5;
48155;PMS5003;35568;48.104;11.782;2022-11-15T14:33:49;6;5;
48155;PMS5003;35568;48.104;11.782;2022-11-15T14:36:16;3;3;
48155;PMS5003;35568;48.104;11.782;2022-11-15T14:38:45;5;5;
48155;PMS5003;35568;48.104;11.782;2022-11-15T14:41:17;5;5;
48155;PMS5003;35568;48.104;11.782;2022-11-15T14:43:46;5;5;
48155;PMS5003;35568;48.104;11.782;2022-11-15T14:46:13;5;5;
48155;PMS5003;35568;48.104;11.782;2022-11-15T14:48:41;5;5;
48155;PMS5003;35568;48.104;11.782;2022-11-15T14:51:10;4;4;
48155;PMS5003;35568;48.104;11.782;2022-11-15T14:53:39;6;6;
48155;PMS5003;35568;48.104;11.782;2022-11-15T14:56:06;7;7;
48155;PMS5003;35568;48.104;11.782;2022-11-15T14:58:34;8;7;
48155;PMS5003;35568;48.104;11.782;2022-11-15T15:01:01;6;6;
48155;PMS5003;35568;48.104;11.782;2022-11-15T15:03:29;6;6;
48155;PMS5003;35568;48.104;11.782;2022-11-15T15:05:56;7;7;
48155;PMS5003;35568;48.104;11.782;2022-11-15T15:08:23;10;9;
48155;PMS5003;35568;48.104;11.782;2022-11-15T15:10:49;8;8;
48155;PMS5003;35568;48.104;11.782;2022-11-15T15:13:18;8;8;
48155;PMS5003;35568;48.104;11.782;2022-11-15T15:15:47;7;6;
48155;PMS5003;35568;48.104;11.782;2022-11-15T15:18:15;7;6;
48155;PMS5003;35568;48.104;11.782;2022-11-15T15:20:43;5;5;
48155;PMS5003;35568;48.104;11.782;2022-11-15T15:23:14;6;6;
48155;PMS5003;35568;48.104;11.782;2022-11-15T15:25:42;8;8;
48155;PMS5003;35568;48.104;11.782;2022-11-15T15:28:10;9;8;
48155;PMS5003;35568;48.104;11.782;2022-11-15T15:30:37;7;7;
48155;PMS5003;35568;48.104;11.782;2022-11-15T15:33:03;13;10;
48155;PMS5003;35568;48.104;11.782;2022-11-15T15:35:31;9;9;
48155;PMS5003;35568;48.104;11.782;2022-11-15T15:38:00;11;10;
48155;PMS5003;35568;48.104;11.782;2022-11-15T15:40:27;11;11;
48155;PMS5003;35568;48.104;11.782;2022-11-15T15:42:56;13;12;
48155;PMS5003;35568;48.104;11.782;2022-11-15T15:45:24;15;15;
48155;PMS5003;35568;48.104;11.782;2022-11-15T15:47:51;13;12;
48155;PMS5003;35568;48.104;11.782;2022-11-15T15:50:21;17;15;
48155;PMS5003;35568;48.104;11.782;2022-11-15T15:52:51;18;16;
48155;PMS5003;35568;48.104;11.782;2022-11-15T15:55:19;17;16;
48155;PMS5003;35568;48.104;11.782;2022-11-15T15:57:47;15;14;
48155;PMS5003;35568;48.104;11.782;2022-11-15T16:00:15;19;18;
48155;PMS5003;35568;48.104;11.782;2022-11-15T16:02:43;17;17;
48155;PMS5003;35568;48.104;11.782;2022-11-15T16:05:10;17;16;
48155;PMS5003;35568;48.104;11.782;2022-11-15T16:07:38;18;17;
48155;PMS5003;35568;48.104;11.782;2022-11-15T16:10:13;9;9;
48155;PMS5003;35568;48.104;11.782;2022-11-15T16:12:45;14;13;
48155;PMS5003;35568;48.104;11.782;2022-11-15T16:15:12;13;12;
48155;PMS5003;35568;48.104;11.782;2022-11-15T16:17:39;14;14;
48155;PMS5003;35568;48.104;11.782;2022-11-15T16:20:14;17;17;
48155;PMS5003;35568;48.104;11.782;2022-11-15T16:22:48;16;16;
48155;PMS5003;35568;48.104;11.782;2022-11-15T16:25:15;17;17;
48155;PMS5003;35568;48.104;11.782;2022-11-15T16:27:42;18;18;
48155;PMS5003;35568;48.104;11.782;2022-11-15T16:30:10;25;24;
48155;PMS5003;35568;48.104;11.782;2022-11-15T16:32:39;52;49;
48155;PMS5003;35568;48.104;11.782;2022-11-15T16:35:06;20;17;
48155;PMS5003;35568;48.104;11.782;2022-11-15T16:37:36;33;30;
48155;PMS5003;35568;48.104;11.782;2022-11-15T16:40:03;24;24;
48155;PMS5003;35568;48.104;11.782;2022-11-15T16:42:31;33;32;
48155;PMS5003;35568;48.104;11.782;2022-11-15T16:44:58;68;63;